sensor_id;sensor_type;location;lat;lon;timestamp;P1;durP1;ratioP1;P2;durP2;ratioP2
15553;SDS011;7878;44.632;10.942;2022-10-15T00:00:39;46.17;;;31.02;;
15553;SDS011;7878;44.632;10.942;2022-10-15T00:03:05;40.90;;;29.58;;
15553;SDS011;7878;44.632;10.942;2022-10-15T00:05:31;39.72;;;29.88;;
15553;SDS011;7878;44.632;10.942;2022-10-15T00:08:00;41.60;;;30.85;;
15553;SDS011;7878;44.632;10.942;2022-10-15T00:10:25;51.45;;;31.45;;
15553;SDS011;7878;44.632;10.942;2022-10-15T00:12:51;43.00;;;29.67;;
15553;SDS011;7878;44.632;10.942;2022-10-15T00:15:17;39.17;;;30.67;;
15553;SDS011;7878;44.632;10.942;2022-10-15T00:17:42;39.58;;;30.35;;
15553;SDS011;7878;44.632;10.942;2022-10-15T00:20:08;41.78;;;30.98;;
15553;SDS011;7878;44.632;10.942;2022-10-15T00:22:35;38.17;;;29.63;;
15553;SDS011;7878;44.632;10.942;2022-10-15T00:25:01;42.40;;;30.58;;
15553;SDS011;7878;44.632;10.942;2022-10-15T00:27:28;44.15;;;31.13;;
15553;SDS011;7878;44.632;10.942;2022-10-15T00:29:54;40.75;;;31.15;;
15553;SDS011;7878;44.632;10.942;2022-10-15T00:32:19;40.35;;;29.60;;
15553;SDS011;7878;44.632;10.942;2022-10-15T00:34:45;41.85;;;29.42;;
15553;SDS011;7878;44.632;10.942;2022-10-15T00:37:11;45.28;;;30.20;;
15553;SDS011;7878;44.632;10.942;2022-10-15T00:39:37;37.90;;;28.63;;
15553;SDS011;7878;44.632;10.942;2022-10-15T00:42:03;38.60;;;29.40;;
15553;SDS011;7878;44.632;10.942;2022-10-15T00:47:03;35.47;;;27.88;;
15553;SDS011;7878;44.632;10.942;2022-10-15T00:49:36;37.03;;;28.35;;
15553;SDS011;7878;44.632;10.942;2022-10-15T00:52:10;37.13;;;29.98;;
15553;SDS011;7878;44.632;10.942;2022-10-15T00:54:57;36.67;;;28.88;;
15553;SDS011;7878;44.632;10.942;2022-10-15T00:57:26;39.20;;;29.25;;
15553;SDS011;7878;44.632;10.942;2022-10-15T00:59:55;37.83;;;28.40;;
15553;SDS011;7878;44.632;10.942;2022-10-15T01:02:24;49.38;;;31.10;;
15553;SDS011;7878;44.632;10.942;2022-10-15T01:04:50;44.47;;;31.13;;
15553;SDS011;7878;44.632;10.942;2022-10-15T01:07:17;41.08;;;30.10;;
15553;SDS011;7878;44.632;10.942;2022-10-15T01:09:43;37.35;;;29.30;;
15553;SDS011;7878;44.632;10.942;2022-10-15T01:12:13;36.55;;;28.48;;
15553;SDS011;7878;44.632;10.942;2022-10-15T01:17:20;38.97;;;28.02;;
15553;SDS011;7878;44.632;10.942;2022-10-15T01:20:14;39.38;;;27.58;;
15553;SDS011;7878;44.632;10.942;2022-10-15T01:30:46;46.22;;;34.42;;
15553;SDS011;7878;44.632;10.942;2022-10-15T01:38:24;49.65;;;36.65;;
15553;SDS011;7878;44.632;10.942;2022-10-15T01:41:02;52.75;;;37.50;;
15553;SDS011;7878;44.632;10.942;2022-10-15T01:43:31;59.35;;;38.58;;
15553;SDS011;7878;44.632;10.942;2022-10-15T01:46:19;58.45;;;41.58;;
15553;SDS011;7878;44.632;10.942;2022-10-15T01:48:48;64.38;;;44.53;;
15553;SDS011;7878;44.632;10.942;2022-10-15T01:51:19;62.88;;;43.15;;
15553;SDS011;7878;44.632;10.942;2022-10-15T01:53:47;67.10;;;44.97;;
15553;SDS011;7878;44.632;10.942;2022-10-15T01:56:16;66.05;;;47.40;;
15553;SDS011;7878;44.632;10.942;2022-10-15T01:58:46;64.65;;;42.95;;
15553;SDS011;7878;44.632;10.942;2022-10-15T02:01:14;56.85;;;41.75;;
15553;SDS011;7878;44.632;10.942;2022-10-15T02:03:47;61.45;;;44.38;;
15553;SDS011;7878;44.632;10.942;2022-10-15T02:06:22;60.42;;;44.08;;
15553;SDS011;7878;44.632;10.942;2022-10-15T02:14:49;58.58;;;43.40;;
15553;SDS011;7878;44.632;10.942;2022-10-15T02:17:22;63.63;;;42.67;;
15553;SDS011;7878;44.632;10.942;2022-10-15T02:20:00;60.28;;;41.42;;
15553;SDS011;7878;44.632;10.942;2022-10-15T02:22:38;57.90;;;43.35;;
15553;SDS011;7878;44.632;10.942;2022-10-15T02:25:24;66.72;;;44.60;;
15553;SDS011;7878;44.632;10.942;2022-10-15T02:27:52;58.30;;;43.55;;
15553;SDS011;7878;44.632;10.942;2022-10-15T02:30:20;67.25;;;44.45;;
15553;SDS011;7878;44.632;10.942;2022-10-15T02:32:53;65.25;;;44.80;;
15553;SDS011;7878;44.632;10.942;2022-10-15T02:35:25;68.82;;;45.60;;
15553;SDS011;7878;44.632;10.942;2022-10-15T02:37:52;62.72;;;43.70;;
15553;SDS011;7878;44.632;10.942;2022-10-15T02:40:26;63.22;;;44.15;;
15553;SDS011;7878;44.632;10.942;2022-10-15T02:42:53;57.55;;;42.83;;
15553;SDS011;7878;44.632;10.942;2022-10-15T02:45:20;64.97;;;41.70;;
15553;SDS011;7878;44.632;10.942;2022-10-15T02:47:46;63.28;;;42.53;;
15553;SDS011;7878;44.632;10.942;2022-10-15T02:50:11;57.40;;;41.42;;
15553;SDS011;7878;44.632;10.942;2022-10-15T02:52:37;49.55;;;37.70;;
15553;SDS011;7878;44.632;10.942;2022-10-15T02:55:03;58.13;;;39.75;;
15553;SDS011;7878;44.632;10.942;2022-10-15T02:57:29;58.88;;;40.00;;
15553;SDS011;7878;44.632;10.942;2022-10-15T02:59:54;54.90;;;39.15;;
15553;SDS011;7878;44.632;10.942;2022-10-15T03:02:20;52.88;;;39.08;;
15553;SDS011;7878;44.632;10.942;2022-10-15T03:04:46;56.15;;;39.85;;
15553;SDS011;7878;44.632;10.942;2022-10-15T03:07:14;57.22;;;38.58;;
15553;SDS011;7878;44.632;10.942;2022-10-15T03:09:40;57.08;;;38.17;;
15553;SDS011;7878;44.632;10.942;2022-10-15T03:12:05;56.33;;;39.53;;
15553;SDS011;7878;44.632;10.942;2022-10-15T03:14:31;51.85;;;38.97;;
15553;SDS011;7878;44.632;10.942;2022-10-15T03:16:57;59.85;;;41.25;;
15553;SDS011;7878;44.632;10.942;2022-10-15T03:19:22;58.47;;;39.22;;
15553;SDS011;7878;44.632;10.942;2022-10-15T03:21:48;57.05;;;40.58;;
15553;SDS011;7878;44.632;10.942;2022-10-15T03:24:14;58.78;;;39.42;;
15553;SDS011;7878;44.632;10.942;2022-10-15T03:26:40;55.10;;;39.20;;
15553;SDS011;7878;44.632;10.942;2022-10-15T03:29:05;56.15;;;38.65;;
15553;SDS011;7878;44.632;10.942;2022-10-15T03:31:31;56.30;;;38.75;;
15553;SDS011;7878;44.632;10.942;2022-10-15T03:33:56;56.67;;;39.05;;
15553;SDS011;7878;44.632;10.942;2022-10-15T03:36:22;59.97;;;38.97;;
15553;SDS011;7878;44.632;10.942;2022-10-15T03:38:48;52.17;;;39.70;;
15553;SDS011;7878;44.632;10.942;2022-10-15T03:41:13;61.30;;;42.38;;
15553;SDS011;7878;44.632;10.942;2022-10-15T03:43:39;59.15;;;41.05;;
15553;SDS011;7878;44.632;10.942;2022-10-15T03:46:05;55.83;;;39.60;;
15553;SDS011;7878;44.632;10.942;2022-10-15T03:48:31;50.97;;;39.42;;
15553;SDS011;7878;44.632;10.942;2022-10-15T03:50:56;53.85;;;38.50;;
15553;SDS011;7878;44.632;10.942;2022-10-15T03:53:22;54.08;;;37.85;;
15553;SDS011;7878;44.632;10.942;2022-10-15T03:55:48;54.22;;;37.47;;
15553;SDS011;7878;44.632;10.942;2022-10-15T03:58:14;49.58;;;35.03;;
15553;SDS011;7878;44.632;10.942;2022-10-15T04:00:40;51.70;;;35.92;;
15553;SDS011;7878;44.632;10.942;2022-10-15T04:03:06;52.22;;;38.72;;
15553;SDS011;7878;44.632;10.942;2022-10-15T04:05:32;57.22;;;39.33;;
15553;SDS011;7878;44.632;10.942;2022-10-15T04:07:58;60.90;;;40.63;;
15553;SDS011;7878;44.632;10.942;2022-10-15T04:10:24;54.88;;;40.92;;
15553;SDS011;7878;44.632;10.942;2022-10-15T04:12:50;56.67;;;40.65;;
15553;SDS011;7878;44.632;10.942;2022-10-15T04:15:15;54.80;;;39.45;;
15553;SDS011;7878;44.632;10.942;2022-10-15T04:17:41;53.55;;;39.28;;
15553;SDS011;7878;44.632;10.942;2022-10-15T04:20:08;55.05;;;39.35;;
15553;SDS011;7878;44.632;10.942;2022-10-15T04:22:35;54.45;;;38.63;;
15553;SDS011;7878;44.632;10.942;2022-10-15T04:25:01;55.10;;;39.00;;
15553;SDS011;7878;44.632;10.942;2022-10-15T04:27:27;56.50;;;40.03;;
15553;SDS011;7878;44.632;10.942;2022-10-15T04:29:53;54.37;;;38.93;;
15553;SDS011;7878;44.632;10.942;2022-10-15T04:32:19;56.10;;;38.97;;
15553;SDS011;7878;44.632;10.942;2022-10-15T04:34:47;53.05;;;40.03;;
15553;SDS011;7878;44.632;10.942;2022-10-15T04:37:13;49.55;;;36.05;;
15553;SDS011;7878;44.632;10.942;2022-10-15T04:39:39;52.58;;;36.53;;
15553;SDS011;7878;44.632;10.942;2022-10-15T04:42:05;55.60;;;37.97;;
15553;SDS011;7878;44.632;10.942;2022-10-15T04:44:30;52.67;;;38.70;;
15553;SDS011;7878;44.632;10.942;2022-10-15T04:46:56;52.83;;;37.80;;
15553;SDS011;7878;44.632;10.942;2022-10-15T04:49:22;55.72;;;38.42;;
15553;SDS011;7878;44.632;10.942;2022-10-15T04:51:47;56.25;;;37.83;;
15553;SDS011;7878;44.632;10.942;2022-10-15T04:54:13;54.63;;;38.80;;
15553;SDS011;7878;44.632;10.942;2022-10-15T04:56:39;56.55;;;40.20;;
15553;SDS011;7878;44.632;10.942;2022-10-15T04:59:05;54.97;;;39.10;;
15553;SDS011;7878;44.632;10.942;2022-10-15T05:01:32;58.73;;;39.83;;
15553;SDS011;7878;44.632;10.942;2022-10-15T05:03:57;55.00;;;39.13;;
15553;SDS011;7878;44.632;10.942;2022-10-15T05:06:23;58.50;;;39.05;;
15553;SDS011;7878;44.632;10.942;2022-10-15T05:08:49;50.53;;;37.42;;
15553;SDS011;7878;44.632;10.942;2022-10-15T05:11:16;48.30;;;34.42;;
15553;SDS011;7878;44.632;10.942;2022-10-15T05:13:44;47.35;;;34.28;;
15553;SDS011;7878;44.632;10.942;2022-10-15T05:16:14;46.58;;;33.95;;
15553;SDS011;7878;44.632;10.942;2022-10-15T05:18:42;52.53;;;35.77;;
15553;SDS011;7878;44.632;10.942;2022-10-15T05:21:09;47.30;;;35.83;;
15553;SDS011;7878;44.632;10.942;2022-10-15T05:23:36;49.20;;;34.83;;
15553;SDS011;7878;44.632;10.942;2022-10-15T05:26:03;58.28;;;36.80;;
15553;SDS011;7878;44.632;10.942;2022-10-15T05:28:34;48.53;;;34.10;;
15553;SDS011;7878;44.632;10.942;2022-10-15T05:31:07;45.55;;;32.20;;
15553;SDS011;7878;44.632;10.942;2022-10-15T05:33:39;43.83;;;31.27;;
15553;SDS011;7878;44.632;10.942;2022-10-15T05:36:09;42.13;;;31.23;;
15553;SDS011;7878;44.632;10.942;2022-10-15T05:38:41;41.75;;;30.30;;
15553;SDS011;7878;44.632;10.942;2022-10-15T05:41:07;43.90;;;31.23;;
15553;SDS011;7878;44.632;10.942;2022-10-15T05:43:33;40.70;;;28.70;;
15553;SDS011;7878;44.632;10.942;2022-10-15T05:45:59;44.70;;;31.33;;
15553;SDS011;7878;44.632;10.942;2022-10-15T05:48:25;44.53;;;31.05;;
15553;SDS011;7878;44.632;10.942;2022-10-15T05:50:51;40.80;;;30.08;;
15553;SDS011;7878;44.632;10.942;2022-10-15T05:53:16;60.70;;;31.88;;
15553;SDS011;7878;44.632;10.942;2022-10-15T05:55:42;45.38;;;30.13;;
15553;SDS011;7878;44.632;10.942;2022-10-15T05:58:08;44.67;;;30.52;;
15553;SDS011;7878;44.632;10.942;2022-10-15T06:00:34;43.60;;;31.50;;
15553;SDS011;7878;44.632;10.942;2022-10-15T06:03:00;44.93;;;32.43;;
15553;SDS011;7878;44.632;10.942;2022-10-15T06:05:26;45.78;;;32.53;;
15553;SDS011;7878;44.632;10.942;2022-10-15T06:07:51;44.85;;;31.88;;
15553;SDS011;7878;44.632;10.942;2022-10-15T06:10:17;51.75;;;31.98;;
15553;SDS011;7878;44.632;10.942;2022-10-15T06:12:47;47.63;;;31.88;;
15553;SDS011;7878;44.632;10.942;2022-10-15T06:15:16;41.85;;;29.00;;
15553;SDS011;7878;44.632;10.942;2022-10-15T06:17:43;44.75;;;30.42;;
15553;SDS011;7878;44.632;10.942;2022-10-15T06:20:09;48.47;;;32.85;;
15553;SDS011;7878;44.632;10.942;2022-10-15T06:22:35;42.90;;;29.80;;
15553;SDS011;7878;44.632;10.942;2022-10-15T06:25:01;45.67;;;30.40;;
15553;SDS011;7878;44.632;10.942;2022-10-15T06:27:26;41.22;;;30.02;;
15553;SDS011;7878;44.632;10.942;2022-10-15T06:29:52;46.53;;;31.80;;
15553;SDS011;7878;44.632;10.942;2022-10-15T06:32:18;47.72;;;32.72;;
15553;SDS011;7878;44.632;10.942;2022-10-15T06:34:43;44.92;;;32.63;;
15553;SDS011;7878;44.632;10.942;2022-10-15T06:37:09;47.47;;;30.92;;
15553;SDS011;7878;44.632;10.942;2022-10-15T06:39:34;42.88;;;31.08;;
15553;SDS011;7878;44.632;10.942;2022-10-15T06:42:00;44.50;;;29.90;;
15553;SDS011;7878;44.632;10.942;2022-10-15T06:44:26;47.85;;;29.27;;
15553;SDS011;7878;44.632;10.942;2022-10-15T06:46:51;37.80;;;27.55;;
15553;SDS011;7878;44.632;10.942;2022-10-15T06:49:17;43.53;;;30.73;;
15553;SDS011;7878;44.632;10.942;2022-10-15T06:51:43;38.67;;;28.27;;
15553;SDS011;7878;44.632;10.942;2022-10-15T06:54:08;48.95;;;28.48;;
15553;SDS011;7878;44.632;10.942;2022-10-15T06:56:34;42.72;;;28.35;;
15553;SDS011;7878;44.632;10.942;2022-10-15T06:59:00;36.95;;;26.70;;
15553;SDS011;7878;44.632;10.942;2022-10-15T07:01:25;40.30;;;27.92;;
15553;SDS011;7878;44.632;10.942;2022-10-15T07:03:51;38.92;;;27.15;;
15553;SDS011;7878;44.632;10.942;2022-10-15T07:06:17;44.58;;;29.15;;
15553;SDS011;7878;44.632;10.942;2022-10-15T07:08:43;43.63;;;29.23;;
15553;SDS011;7878;44.632;10.942;2022-10-15T07:11:09;36.40;;;26.65;;
15553;SDS011;7878;44.632;10.942;2022-10-15T07:13:36;35.90;;;26.95;;
15553;SDS011;7878;44.632;10.942;2022-10-15T07:16:05;44.30;;;28.83;;
15553;SDS011;7878;44.632;10.942;2022-10-15T07:18:33;42.58;;;26.45;;
15553;SDS011;7878;44.632;10.942;2022-10-15T07:20:59;39.92;;;26.73;;
15553;SDS011;7878;44.632;10.942;2022-10-15T07:23:25;33.70;;;26.00;;
15553;SDS011;7878;44.632;10.942;2022-10-15T07:25:51;37.92;;;27.25;;
15553;SDS011;7878;44.632;10.942;2022-10-15T07:28:17;34.58;;;25.02;;
15553;SDS011;7878;44.632;10.942;2022-10-15T07:30:43;37.33;;;25.75;;
15553;SDS011;7878;44.632;10.942;2022-10-15T07:33:08;35.63;;;25.40;;
15553;SDS011;7878;44.632;10.942;2022-10-15T07:35:35;29.80;;;22.80;;
15553;SDS011;7878;44.632;10.942;2022-10-15T07:38:02;33.88;;;24.50;;
15553;SDS011;7878;44.632;10.942;2022-10-15T07:40:28;32.50;;;22.45;;
15553;SDS011;7878;44.632;10.942;2022-10-15T07:42:54;37.53;;;23.27;;
15553;SDS011;7878;44.632;10.942;2022-10-15T07:45:21;35.25;;;22.25;;
15553;SDS011;7878;44.632;10.942;2022-10-15T07:47:47;32.83;;;22.60;;
15553;SDS011;7878;44.632;10.942;2022-10-15T07:50:13;31.63;;;22.42;;
15553;SDS011;7878;44.632;10.942;2022-10-15T07:52:39;30.92;;;22.73;;
15553;SDS011;7878;44.632;10.942;2022-10-15T07:55:05;34.85;;;24.10;;
15553;SDS011;7878;44.632;10.942;2022-10-15T07:57:31;36.47;;;23.63;;
15553;SDS011;7878;44.632;10.942;2022-10-15T07:59:57;30.60;;;23.77;;
15553;SDS011;7878;44.632;10.942;2022-10-15T08:02:23;31.95;;;22.98;;
15553;SDS011;7878;44.632;10.942;2022-10-15T08:04:49;31.58;;;23.90;;
15553;SDS011;7878;44.632;10.942;2022-10-15T08:07:14;39.42;;;29.77;;
15553;SDS011;7878;44.632;10.942;2022-10-15T08:09:40;32.75;;;25.15;;
15553;SDS011;7878;44.632;10.942;2022-10-15T08:12:06;30.45;;;23.67;;
15553;SDS011;7878;44.632;10.942;2022-10-15T08:14:34;39.42;;;24.65;;
15553;SDS011;7878;44.632;10.942;2022-10-15T08:17:04;32.85;;;24.00;;
15553;SDS011;7878;44.632;10.942;2022-10-15T08:19:30;37.45;;;24.20;;
15553;SDS011;7878;44.632;10.942;2022-10-15T08:21:56;39.30;;;26.10;;
15553;SDS011;7878;44.632;10.942;2022-10-15T08:24:22;36.05;;;26.05;;
15553;SDS011;7878;44.632;10.942;2022-10-15T08:26:48;36.17;;;24.00;;
15553;SDS011;7878;44.632;10.942;2022-10-15T08:29:14;49.13;;;26.88;;
15553;SDS011;7878;44.632;10.942;2022-10-15T08:31:40;54.10;;;26.10;;
15553;SDS011;7878;44.632;10.942;2022-10-15T08:34:06;38.47;;;27.45;;
15553;SDS011;7878;44.632;10.942;2022-10-15T08:36:32;39.10;;;27.00;;
15553;SDS011;7878;44.632;10.942;2022-10-15T08:38:58;46.28;;;28.27;;
15553;SDS011;7878;44.632;10.942;2022-10-15T08:41:37;39.05;;;25.15;;
15553;SDS011;7878;44.632;10.942;2022-10-15T08:44:11;36.53;;;26.35;;
15553;SDS011;7878;44.632;10.942;2022-10-15T08:46:45;39.85;;;27.30;;
15553;SDS011;7878;44.632;10.942;2022-10-15T08:52:50;36.42;;;26.08;;
15553;SDS011;7878;44.632;10.942;2022-10-15T08:54:57;42.28;;;25.67;;
15553;SDS011;7878;44.632;10.942;2022-10-15T08:57:42;36.33;;;25.40;;
15553;SDS011;7878;44.632;10.942;2022-10-15T09:00:12;33.55;;;24.08;;
15553;SDS011;7878;44.632;10.942;2022-10-15T09:02:41;40.90;;;27.85;;
15553;SDS011;7878;44.632;10.942;2022-10-15T09:13:29;45.97;;;30.13;;
15553;SDS011;7878;44.632;10.942;2022-10-15T09:18:37;33.08;;;24.65;;
15553;SDS011;7878;44.632;10.942;2022-10-15T09:21:05;33.55;;;24.25;;
15553;SDS011;7878;44.632;10.942;2022-10-15T09:23:33;38.08;;;25.25;;
15553;SDS011;7878;44.632;10.942;2022-10-15T09:26:06;43.67;;;25.45;;
15553;SDS011;7878;44.632;10.942;2022-10-15T09:28:51;39.88;;;27.08;;
15553;SDS011;7878;44.632;10.942;2022-10-15T09:31:18;34.35;;;25.63;;
15553;SDS011;7878;44.632;10.942;2022-10-15T09:33:49;40.88;;;27.20;;
15553;SDS011;7878;44.632;10.942;2022-10-15T09:44:49;37.20;;;28.10;;
15553;SDS011;7878;44.632;10.942;2022-10-15T09:47:27;40.83;;;26.50;;
15553;SDS011;7878;44.632;10.942;2022-10-15T09:49:54;47.38;;;26.65;;
15553;SDS011;7878;44.632;10.942;2022-10-15T09:55:17;39.22;;;25.83;;
15553;SDS011;7878;44.632;10.942;2022-10-15T09:58:06;32.95;;;24.70;;
15553;SDS011;7878;44.632;10.942;2022-10-15T10:03:27;37.42;;;21.83;;
15553;SDS011;7878;44.632;10.942;2022-10-15T10:08:54;35.38;;;17.83;;
15553;SDS011;7878;44.632;10.942;2022-10-15T10:11:21;36.67;;;24.13;;
15553;SDS011;7878;44.632;10.942;2022-10-15T10:16:16;38.75;;;24.25;;
15553;SDS011;7878;44.632;10.942;2022-10-15T10:18:44;34.42;;;25.27;;
15553;SDS011;7878;44.632;10.942;2022-10-15T10:21:31;33.88;;;24.23;;
15553;SDS011;7878;44.632;10.942;2022-10-15T10:24:15;30.17;;;22.88;;
15553;SDS011;7878;44.632;10.942;2022-10-15T10:26:43;32.35;;;25.42;;
15553;SDS011;7878;44.632;10.942;2022-10-15T10:29:10;30.65;;;24.48;;
15553;SDS011;7878;44.632;10.942;2022-10-15T10:31:42;35.15;;;23.48;;
15553;SDS011;7878;44.632;10.942;2022-10-15T10:34:11;32.63;;;22.90;;
15553;SDS011;7878;44.632;10.942;2022-10-15T10:36:40;33.50;;;24.48;;
15553;SDS011;7878;44.632;10.942;2022-10-15T10:49:37;36.35;;;24.65;;
15553;SDS011;7878;44.632;10.942;2022-10-15T11:00:22;35.08;;;25.77;;
15553;SDS011;7878;44.632;10.942;2022-10-15T11:05:54;31.80;;;24.40;;
15553;SDS011;7878;44.632;10.942;2022-10-15T11:11:19;30.90;;;22.52;;
15553;SDS011;7878;44.632;10.942;2022-10-15T11:13:54;27.17;;;22.75;;
15553;SDS011;7878;44.632;10.942;2022-10-15T11:21:53;33.72;;;22.05;;
15553;SDS011;7878;44.632;10.942;2022-10-15T11:25:26;27.83;;;20.95;;
15553;SDS011;7878;44.632;10.942;2022-10-15T11:30:38;23.67;;;19.67;;
15553;SDS011;7878;44.632;10.942;2022-10-15T11:38:54;22.65;;;18.17;;
15553;SDS011;7878;44.632;10.942;2022-10-15T11:41:34;24.73;;;17.52;;
15553;SDS011;7878;44.632;10.942;2022-10-15T11:47:17;24.02;;;18.23;;
15553;SDS011;7878;44.632;10.942;2022-10-15T11:55:57;21.83;;;17.88;;
15553;SDS011;7878;44.632;10.942;2022-10-15T12:00:58;20.55;;;16.60;;
15553;SDS011;7878;44.632;10.942;2022-10-15T12:03:28;22.27;;;18.38;;
15553;SDS011;7878;44.632;10.942;2022-10-15T12:08:25;19.05;;;13.95;;
15553;SDS011;7878;44.632;10.942;2022-10-15T12:22:01;19.33;;;16.55;;
15553;SDS011;7878;44.632;10.942;2022-10-15T12:29:43;13.75;;;12.23;;
15553;SDS011;7878;44.632;10.942;2022-10-15T12:32:22;15.82;;;12.85;;
15553;SDS011;7878;44.632;10.942;2022-10-15T12:35:05;16.92;;;15.15;;
15553;SDS011;7878;44.632;10.942;2022-10-15T12:37:41;20.20;;;15.52;;
15553;SDS011;7878;44.632;10.942;2022-10-15T12:42:59;17.40;;;14.00;;
15553;SDS011;7878;44.632;10.942;2022-10-15T12:48:20;18.42;;;15.60;;
15553;SDS011;7878;44.632;10.942;2022-10-15T12:51:54;22.83;;;16.55;;
15553;SDS011;7878;44.632;10.942;2022-10-15T12:53:49;20.83;;;16.63;;
15553;SDS011;7878;44.632;10.942;2022-10-15T12:58:43;21.25;;;14.98;;
15553;SDS011;7878;44.632;10.942;2022-10-15T13:08:45;15.55;;;9.80;;
15553;SDS011;7878;44.632;10.942;2022-10-15T13:11:21;17.25;;;9.60;;
15553;SDS011;7878;44.632;10.942;2022-10-15T13:14:12;12.50;;;10.07;;
15553;SDS011;7878;44.632;10.942;2022-10-15T13:16:50;15.93;;;10.88;;
15553;SDS011;7878;44.632;10.942;2022-10-15T13:19:17;15.07;;;10.60;;
15553;SDS011;7878;44.632;10.942;2022-10-15T13:21:46;14.15;;;10.32;;
15553;SDS011;7878;44.632;10.942;2022-10-15T13:24:13;13.68;;;10.02;;
15553;SDS011;7878;44.632;10.942;2022-10-15T13:26:45;18.90;;;10.50;;
15553;SDS011;7878;44.632;10.942;2022-10-15T13:29:15;15.43;;;8.88;;
15553;SDS011;7878;44.632;10.942;2022-10-15T13:31:43;13.85;;;9.75;;
15553;SDS011;7878;44.632;10.942;2022-10-15T13:36:40;11.57;;;10.35;;
15553;SDS011;7878;44.632;10.942;2022-10-15T13:39:19;13.70;;;8.88;;
15553;SDS011;7878;44.632;10.942;2022-10-15T13:44:38;9.25;;;7.30;;
15553;SDS011;7878;44.632;10.942;2022-10-15T13:55:26;13.63;;;7.00;;
15553;SDS011;7878;44.632;10.942;2022-10-15T13:58:15;17.65;;;8.60;;
15553;SDS011;7878;44.632;10.942;2022-10-15T14:00:42;12.98;;;7.13;;
15553;SDS011;7878;44.632;10.942;2022-10-15T14:03:26;13.90;;;6.97;;
15553;SDS011;7878;44.632;10.942;2022-10-15T14:05:54;13.35;;;8.15;;
15553;SDS011;7878;44.632;10.942;2022-10-15T14:08:22;13.88;;;8.27;;
15553;SDS011;7878;44.632;10.942;2022-10-15T14:10:56;10.23;;;7.43;;
15553;SDS011;7878;44.632;10.942;2022-10-15T14:13:23;11.48;;;7.85;;
15553;SDS011;7878;44.632;10.942;2022-10-15T14:18:24;10.32;;;6.70;;
15553;SDS011;7878;44.632;10.942;2022-10-15T14:21:11;8.45;;;6.38;;
15553;SDS011;7878;44.632;10.942;2022-10-15T14:23:39;12.48;;;7.47;;
15553;SDS011;7878;44.632;10.942;2022-10-15T14:26:07;12.32;;;6.43;;
15553;SDS011;7878;44.632;10.942;2022-10-15T14:28:34;9.02;;;5.95;;
15553;SDS011;7878;44.632;10.942;2022-10-15T14:31:01;7.97;;;5.78;;
15553;SDS011;7878;44.632;10.942;2022-10-15T14:33:31;7.60;;;4.68;;
15553;SDS011;7878;44.632;10.942;2022-10-15T14:36:15;10.18;;;6.15;;
15553;SDS011;7878;44.632;10.942;2022-10-15T14:38:48;12.10;;;6.25;;
15553;SDS011;7878;44.632;10.942;2022-10-15T14:43:47;8.23;;;5.88;;
15553;SDS011;7878;44.632;10.942;2022-10-15T14:46:24;9.93;;;5.30;;
15553;SDS011;7878;44.632;10.942;2022-10-15T14:48:56;10.52;;;5.40;;
15553;SDS011;7878;44.632;10.942;2022-10-15T14:51:22;8.85;;;6.57;;
15553;SDS011;7878;44.632;10.942;2022-10-15T14:53:49;10.85;;;6.50;;
15553;SDS011;7878;44.632;10.942;2022-10-15T14:56:18;10.40;;;8.10;;
15553;SDS011;7878;44.632;10.942;2022-10-15T14:58:50;9.77;;;7.47;;
15553;SDS011;7878;44.632;10.942;2022-10-15T15:01:20;10.73;;;7.72;;
15553;SDS011;7878;44.632;10.942;2022-10-15T15:03:47;12.57;;;7.60;;
15553;SDS011;7878;44.632;10.942;2022-10-15T15:06:14;15.77;;;7.25;;
15553;SDS011;7878;44.632;10.942;2022-10-15T15:08:40;15.15;;;7.03;;
15553;SDS011;7878;44.632;10.942;2022-10-15T15:11:06;7.38;;;5.80;;
15553;SDS011;7878;44.632;10.942;2022-10-15T15:13:37;12.65;;;7.18;;
15553;SDS011;7878;44.632;10.942;2022-10-15T15:16:11;11.68;;;7.40;;
15553;SDS011;7878;44.632;10.942;2022-10-15T15:18:38;13.25;;;6.70;;
15553;SDS011;7878;44.632;10.942;2022-10-15T15:21:06;11.18;;;7.38;;
15553;SDS011;7878;44.632;10.942;2022-10-15T15:23:34;14.80;;;7.70;;
15553;SDS011;7878;44.632;10.942;2022-10-15T15:26:00;7.25;;;6.43;;
15553;SDS011;7878;44.632;10.942;2022-10-15T15:28:27;16.73;;;7.50;;
15553;SDS011;7878;44.632;10.942;2022-10-15T15:31:02;11.90;;;6.07;;
15553;SDS011;7878;44.632;10.942;2022-10-15T15:33:31;7.25;;;5.97;;
15553;SDS011;7878;44.632;10.942;2022-10-15T15:36:05;7.70;;;6.10;;
15553;SDS011;7878;44.632;10.942;2022-10-15T15:38:33;8.57;;;6.00;;
15553;SDS011;7878;44.632;10.942;2022-10-15T15:41:18;6.43;;;5.82;;
15553;SDS011;7878;44.632;10.942;2022-10-15T15:43:45;11.93;;;6.47;;
15553;SDS011;7878;44.632;10.942;2022-10-15T15:46:11;11.75;;;6.40;;
15553;SDS011;7878;44.632;10.942;2022-10-15T15:48:37;10.63;;;6.28;;
15553;SDS011;7878;44.632;10.942;2022-10-15T15:51:05;7.35;;;6.20;;
15553;SDS011;7878;44.632;10.942;2022-10-15T15:53:38;8.38;;;5.68;;
15553;SDS011;7878;44.632;10.942;2022-10-15T15:56:04;10.15;;;6.63;;
15553;SDS011;7878;44.632;10.942;2022-10-15T15:58:30;11.10;;;5.68;;
15553;SDS011;7878;44.632;10.942;2022-10-15T16:00:55;8.52;;;6.40;;
15553;SDS011;7878;44.632;10.942;2022-10-15T16:03:21;12.48;;;5.57;;
15553;SDS011;7878;44.632;10.942;2022-10-15T16:05:47;17.88;;;5.72;;
15553;SDS011;7878;44.632;10.942;2022-10-15T16:08:13;10.18;;;5.43;;
15553;SDS011;7878;44.632;10.942;2022-10-15T16:10:39;11.07;;;5.97;;
15553;SDS011;7878;44.632;10.942;2022-10-15T16:13:05;7.00;;;5.60;;
15553;SDS011;7878;44.632;10.942;2022-10-15T16:15:30;10.18;;;5.80;;
15553;SDS011;7878;44.632;10.942;2022-10-15T16:17:56;16.75;;;6.80;;
15553;SDS011;7878;44.632;10.942;2022-10-15T16:20:22;9.15;;;6.18;;
15553;SDS011;7878;44.632;10.942;2022-10-15T16:22:48;10.45;;;6.45;;
15553;SDS011;7878;44.632;10.942;2022-10-15T16:25:14;12.20;;;6.18;;
15553;SDS011;7878;44.632;10.942;2022-10-15T16:27:40;14.05;;;6.72;;
15553;SDS011;7878;44.632;10.942;2022-10-15T16:30:09;10.75;;;5.28;;
15553;SDS011;7878;44.632;10.942;2022-10-15T16:32:35;11.05;;;5.65;;
15553;SDS011;7878;44.632;10.942;2022-10-15T16:35:01;14.90;;;6.50;;
15553;SDS011;7878;44.632;10.942;2022-10-15T16:37:26;9.68;;;5.53;;
15553;SDS011;7878;44.632;10.942;2022-10-15T16:39:52;9.65;;;5.03;;
15553;SDS011;7878;44.632;10.942;2022-10-15T16:42:18;19.08;;;5.85;;
15553;SDS011;7878;44.632;10.942;2022-10-15T16:44:43;12.10;;;5.68;;
15553;SDS011;7878;44.632;10.942;2022-10-15T16:47:09;22.83;;;16.75;;
15553;SDS011;7878;44.632;10.942;2022-10-15T16:49:34;22.83;;;10.18;;
15553;SDS011;7878;44.632;10.942;2022-10-15T16:52:00;17.63;;;12.52;;
15553;SDS011;7878;44.632;10.942;2022-10-15T16:54:26;18.73;;;10.48;;
15553;SDS011;7878;44.632;10.942;2022-10-15T16:56:52;29.73;;;17.42;;
15553;SDS011;7878;44.632;10.942;2022-10-15T16:59:18;13.07;;;7.22;;
15553;SDS011;7878;44.632;10.942;2022-10-15T17:01:44;20.13;;;7.40;;
15553;SDS011;7878;44.632;10.942;2022-10-15T17:04:10;17.70;;;6.53;;
15553;SDS011;7878;44.632;10.942;2022-10-15T17:06:36;11.75;;;5.93;;
15553;SDS011;7878;44.632;10.942;2022-10-15T17:09:02;16.83;;;6.13;;
15553;SDS011;7878;44.632;10.942;2022-10-15T17:11:29;12.80;;;6.30;;
15553;SDS011;7878;44.632;10.942;2022-10-15T17:13:58;13.07;;;5.82;;
15553;SDS011;7878;44.632;10.942;2022-10-15T17:16:26;16.27;;;6.53;;